sensor_id;sensor_type;location;lat;lon;timestamp;pressure;altitude;pressure_sealevel;temperature;humidity
21781;BME280;52576;53.614;9.894;2023-04-01T00:01:14;99277.19;;;9.69;89.90
21781;BME280;52576;53.614;9.894;2023-04-01T00:03:19;99281.59;;;9.68;89.88
21781;BME280;52576;53.614;9.894;2023-04-01T00:05:23;99278.00;;;9.69;89.99
21781;BME280;52576;53.614;9.894;2023-04-01T00:07:27;99274.69;;;9.67;89.84
21781;BME280;52576;53.614;9.894;2023-04-01T00:09:31;99281.59;;;9.68;89.95
21781;BME280;52576;53.614;9.894;2023-04-01T00:11:35;99283.50;;;9.66;90.07
21781;BME280;52576;53.614;9.894;2023-04-01T00:13:38;99281.84;;;9.65;89.86
21781;BME280;52576;53.614;9.894;2023-04-01T00:15:42;99282.69;;;9.66;89.99
21781;BME280;52576;53.614;9.894;2023-04-01T00:17:47;99281.03;;;9.65;90.08
21781;BME280;52576;53.614;9.894;2023-04-01T00:19:51;99287.09;;;9.65;90.07
21781;BME280;52576;53.614;9.894;2023-04-01T00:21:54;99282.69;;;9.66;90.19
21781;BME280;52576;53.614;9.894;2023-04-01T00:23:59;99283.50;;;9.66;90.14
21781;BME280;52576;53.614;9.894;2023-04-01T00:26:03;99283.50;;;9.66;90.30
21781;BME280;52576;53.614;9.894;2023-04-01T00:28:07;99278.28;;;9.66;90.06
21781;BME280;52576;53.614;9.894;2023-04-01T00:30:10;99279.09;;;9.67;90.24
21781;BME280;52576;53.614;9.894;2023-04-01T00:32:14;99283.50;;;9.66;90.09
21781;BME280;52576;53.614;9.894;2023-04-01T00:34:19;99283.66;;;9.65;89.97
21781;BME280;52576;53.614;9.894;2023-04-01T00:36:23;99284.47;;;9.65;90.18
21781;BME280;52576;53.614;9.894;2023-04-01T00:38:27;99285.44;;;9.64;90.10
21781;BME280;52576;53.614;9.894;2023-04-01T00:40:32;99283.78;;;9.63;90.35
21781;BME280;52576;53.614;9.894;2023-04-01T00:42:36;99282.13;;;9.62;90.20
21781;BME280;52576;53.614;9.894;2023-04-01T00:44:40;99285.72;;;9.61;90.31
21781;BME280;52576;53.614;9.894;2023-04-01T00:46:43;99280.50;;;9.61;90.30
21781;BME280;52576;53.614;9.894;2023-04-01T00:48:49;99285.72;;;9.61;90.39
21781;BME280;52576;53.614;9.894;2023-04-01T00:50:59;99285.03;;;9.59;90.34
21781;BME280;52576;53.614;9.894;2023-04-01T00:53:03;99277.19;;;9.59;90.43
21781;BME280;52576;53.614;9.894;2023-04-01T00:55:10;99283.38;;;9.58;90.35
21781;BME280;52576;53.614;9.894;2023-04-01T00:57:17;99280.75;;;9.58;90.35
21781;BME280;52576;53.614;9.894;2023-04-01T00:59:25;99279.09;;;9.57;90.44
21781;BME280;52576;53.614;9.894;2023-04-01T01:01:30;99286.25;;;9.55;90.39
21781;BME280;52576;53.614;9.894;2023-04-01T01:03:35;99288.84;;;9.55;90.39
21781;BME280;52576;53.614;9.894;2023-04-01T01:05:58;99279.34;;;9.54;90.49
21781;BME280;52576;53.614;9.894;2023-04-01T01:08:10;99289.81;;;9.54;90.50
21781;BME280;52576;53.614;9.894;2023-04-01T01:10:17;99289.00;;;9.53;90.48
21781;BME280;52576;53.614;9.894;2023-04-01T01:12:26;99289.13;;;9.52;90.65
21781;BME280;52576;53.614;9.894;2023-04-01T01:14:39;99286.50;;;9.52;90.61
21781;BME280;52576;53.614;9.894;2023-04-01T01:16:46;99290.06;;;9.51;90.69
21781;BME280;52576;53.614;9.894;2023-04-01T01:18:59;99290.06;;;9.51;90.65
21781;BME280;52576;53.614;9.894;2023-04-01T01:21:29;99288.41;;;9.50;90.64
21781;BME280;52576;53.614;9.894;2023-04-01T01:24:05;99287.59;;;9.49;90.64
21781;BME280;52576;53.614;9.894;2023-04-01T01:26:25;99286.88;;;9.47;90.65
21781;BME280;52576;53.614;9.894;2023-04-01T01:28:37;99288.69;;;9.47;90.64
21781;BME280;52576;53.614;9.894;2023-04-01T01:30:51;99286.06;;;9.47;90.95
21781;BME280;52576;53.614;9.894;2023-04-01T01:35:37;99296.53;;;9.47;90.79
21781;BME280;52576;53.614;9.894;2023-04-01T01:37:51;99287.03;;;9.46;90.85
21781;BME280;52576;53.614;9.894;2023-04-01T01:39:58;99294.88;;;9.46;90.87
21781;BME280;52576;53.614;9.894;2023-04-01T01:42:07;99292.25;;;9.46;90.84
21781;BME280;52576;53.614;9.894;2023-04-01T01:44:14;99293.22;;;9.45;90.86
21781;BME280;52576;53.614;9.894;2023-04-01T01:46:21;99295.81;;;9.45;90.79
21781;BME280;52576;53.614;9.894;2023-04-01T01:48:26;99300.22;;;9.44;91.01
21781;BME280;52576;53.614;9.894;2023-04-01T01:50:30;99299.41;;;9.44;90.94
21781;BME280;52576;53.614;9.894;2023-04-01T01:52:35;99297.75;;;9.43;91.00
21781;BME280;52576;53.614;9.894;2023-04-01T01:54:47;99309.03;;;9.43;91.08
21781;BME280;52576;53.614;9.894;2023-04-01T01:57:03;99299.66;;;9.41;91.02
21781;BME280;52576;53.614;9.894;2023-04-01T01:59:09;99303.22;;;9.40;91.16
21781;BME280;52576;53.614;9.894;2023-04-01T02:01:17;99312.03;;;9.39;91.07
21781;BME280;52576;53.614;9.894;2023-04-01T02:03:24;99309.41;;;9.39;91.04
21781;BME280;52576;53.614;9.894;2023-04-01T02:05:30;99298.25;;;9.37;91.07
21781;BME280;52576;53.614;9.894;2023-04-01T02:07:42;99309.53;;;9.37;91.20
21781;BME280;52576;53.614;9.894;2023-04-01T02:09:49;99307.06;;;9.36;91.12
21781;BME280;52576;53.614;9.894;2023-04-01T02:11:57;99308.72;;;9.37;91.26
21781;BME280;52576;53.614;9.894;2023-04-01T02:14:06;99309.69;;;9.36;91.35
21781;BME280;52576;53.614;9.894;2023-04-01T02:16:15;99310.66;;;9.35;91.35
21781;BME280;52576;53.614;9.894;2023-04-01T02:18:23;99313.28;;;9.35;91.21
21781;BME280;52576;53.614;9.894;2023-04-01T02:20:28;99315.88;;;9.35;91.34
21781;BME280;52576;53.614;9.894;2023-04-01T02:22:34;99312.56;;;9.33;91.26
21781;BME280;52576;53.614;9.894;2023-04-01T02:24:41;99310.91;;;9.32;91.29
21781;BME280;52576;53.614;9.894;2023-04-01T02:26:46;99311.88;;;9.31;91.27
21781;BME280;52576;53.614;9.894;2023-04-01T02:28:50;99314.50;;;9.31;91.50
21781;BME280;52576;53.614;9.894;2023-04-01T02:30:57;99316.16;;;9.32;91.34
21781;BME280;52576;53.614;9.894;2023-04-01T02:33:05;99316.16;;;9.32;91.41
21781;BME280;52576;53.614;9.894;2023-04-01T02:35:10;99318.75;;;9.32;91.42
21781;BME280;52576;53.614;9.894;2023-04-01T02:37:15;99310.91;;;9.32;91.39
21781;BME280;52576;53.614;9.894;2023-04-01T02:39:18;99315.31;;;9.31;91.51
21781;BME280;52576;53.614;9.894;2023-04-01T02:41:23;99322.34;;;9.31;91.38
21781;BME280;52576;53.614;9.894;2023-04-01T02:43:27;99324.94;;;9.31;91.73
21781;BME280;52576;53.614;9.894;2023-04-01T02:45:31;99324.94;;;9.31;91.56
21781;BME280;52576;53.614;9.894;2023-04-01T02:47:34;99318.06;;;9.30;91.56
21781;BME280;52576;53.614;9.894;2023-04-01T02:49:38;99329.22;;;9.32;91.58
21781;BME280;52576;53.614;9.894;2023-04-01T02:51:41;99324.94;;;9.31;91.63
21781;BME280;52576;53.614;9.894;2023-04-01T02:53:45;99331.84;;;9.32;91.72
21781;BME280;52576;53.614;9.894;2023-04-01T02:55:48;99329.34;;;9.30;91.58
21781;BME280;52576;53.614;9.894;2023-04-01T02:57:55;99328.53;;;9.30;91.76
21781;BME280;52576;53.614;9.894;2023-04-01T02:59:58;99335.53;;;9.29;91.73
21781;BME280;52576;53.614;9.894;2023-04-01T03:02:01;99327.69;;;9.29;91.73
21781;BME280;52576;53.614;9.894;2023-04-01T03:04:05;99338.97;;;9.30;91.76
21781;BME280;52576;53.614;9.894;2023-04-01T03:06:10;99333.75;;;9.30;91.83
21781;BME280;52576;53.614;9.894;2023-04-01T03:08:13;99342.53;;;9.29;91.78
21781;BME280;52576;53.614;9.894;2023-04-01T03:10:17;99339.09;;;9.28;91.73
21781;BME280;52576;53.614;9.894;2023-04-01T03:12:20;99342.53;;;9.29;91.96
21781;BME280;52576;53.614;9.894;2023-04-01T03:14:27;99343.38;;;9.29;91.81
21781;BME280;52576;53.614;9.894;2023-04-01T03:16:31;99335.66;;;9.28;91.82
21781;BME280;52576;53.614;9.894;2023-04-01T03:18:35;99342.53;;;9.29;91.90
21781;BME280;52576;53.614;9.894;2023-04-01T03:20:38;99353.00;;;9.29;91.93
21781;BME280;52576;53.614;9.894;2023-04-01T03:22:41;99343.38;;;9.29;91.92
21781;BME280;52576;53.614;9.894;2023-04-01T03:24:45;99346.94;;;9.28;91.93
21781;BME280;52576;53.614;9.894;2023-04-01T03:26:48;99344.47;;;9.27;91.91
21781;BME280;52576;53.614;9.894;2023-04-01T03:28:53;99348.03;;;9.26;91.98
21781;BME280;52576;53.614;9.894;2023-04-01T03:30:58;99348.03;;;9.26;91.86
21781;BME280;52576;53.614;9.894;2023-04-01T03:33:03;99344.72;;;9.24;91.97
21781;BME280;52576;53.614;9.894;2023-04-01T03:35:07;99347.31;;;9.24;92.02
21781;BME280;52576;53.614;9.894;2023-04-01T03:37:11;99344.72;;;9.24;92.07
21781;BME280;52576;53.614;9.894;2023-04-01T03:39:15;99349.94;;;9.24;92.07
21781;BME280;52576;53.614;9.894;2023-04-01T03:41:20;99348.28;;;9.23;92.12
21781;BME280;52576;53.614;9.894;2023-04-01T03:43:23;99346.63;;;9.22;92.02
21781;BME280;52576;53.614;9.894;2023-04-01T03:45:27;99354.34;;;9.23;92.09
21781;BME280;52576;53.614;9.894;2023-04-01T03:47:33;99357.09;;;9.22;92.02
21781;BME280;52576;53.614;9.894;2023-04-01T03:49:37;99357.09;;;9.22;92.04
21781;BME280;52576;53.614;9.894;2023-04-01T03:51:41;99357.09;;;9.22;92.07
21781;BME280;52576;53.614;9.894;2023-04-01T03:53:45;99366.72;;;9.21;92.16
21781;BME280;52576;53.614;9.894;2023-04-01T03:55:49;99366.84;;;9.19;92.16
21781;BME280;52576;53.614;9.894;2023-04-01T03:57:53;99359.00;;;9.19;92.32
21781;BME280;52576;53.614;9.894;2023-04-01T03:59:56;99365.06;;;9.20;92.09
21781;BME280;52576;53.614;9.894;2023-04-01T04:02:00;99369.44;;;9.19;92.18
21781;BME280;52576;53.614;9.894;2023-04-01T04:04:05;99370.28;;;9.20;92.18
21781;BME280;52576;53.614;9.894;2023-04-01T04:06:11;99369.44;;;9.19;92.16
21781;BME280;52576;53.614;9.894;2023-04-01T04:08:15;99366.84;;;9.19;92.30
21781;BME280;52576;53.614;9.894;2023-04-01T04:10:19;99371.13;;;9.21;92.26
21781;BME280;52576;53.614;9.894;2023-04-01T04:12:25;99371.94;;;9.21;92.29
21781;BME280;52576;53.614;9.894;2023-04-01T04:14:28;99378.00;;;9.22;92.23
21781;BME280;52576;53.614;9.894;2023-04-01T04:16:32;99375.25;;;9.23;92.25
21781;BME280;52576;53.614;9.894;2023-04-01T04:18:39;99380.63;;;9.22;92.26
21781;BME280;52576;53.614;9.894;2023-04-01T04:20:45;99378.00;;;9.22;92.25
21781;BME280;52576;53.614;9.894;2023-04-01T04:22:50;99386.78;;;9.21;92.23
21781;BME280;52576;53.614;9.894;2023-04-01T04:24:53;99379.91;;;9.19;92.22
21781;BME280;52576;53.614;9.894;2023-04-01T04:26:57;99383.47;;;9.18;92.28
21781;BME280;52576;53.614;9.894;2023-04-01T04:29:01;99385.38;;;9.16;92.31
21781;BME280;52576;53.614;9.894;2023-04-01T04:31:06;99390.63;;;9.16;92.30
21781;BME280;52576;53.614;9.894;2023-04-01T04:33:10;99388.13;;;9.15;92.30
21781;BME280;52576;53.614;9.894;2023-04-01T04:35:14;99387.28;;;9.14;92.31
21781;BME280;52576;53.614;9.894;2023-04-01T04:37:19;99394.31;;;9.14;92.42
21781;BME280;52576;53.614;9.894;2023-04-01T04:39:22;99396.09;;;9.13;92.40
21781;BME280;52576;53.614;9.894;2023-04-01T04:41:26;99398.72;;;9.13;92.32
21781;BME280;52576;53.614;9.894;2023-04-01T04:43:29;99403.22;;;9.11;92.45
21781;BME280;52576;53.614;9.894;2023-04-01T04:45:34;99403.22;;;9.11;92.33
21781;BME280;52576;53.614;9.894;2023-04-01T04:47:37;99408.47;;;9.11;92.38
21781;BME280;52576;53.614;9.894;2023-04-01T04:49:41;99412.03;;;9.10;92.47
21781;BME280;52576;53.614;9.894;2023-04-01T04:51:44;99412.03;;;9.10;92.51
21781;BME280;52576;53.614;9.894;2023-04-01T04:53:51;99406.81;;;9.10;92.55
21781;BME280;52576;53.614;9.894;2023-04-01T04:56:03;99417.25;;;9.10;92.54
21781;BME280;52576;53.614;9.894;2023-04-01T04:58:14;99413.69;;;9.11;92.60
21781;BME280;52576;53.614;9.894;2023-04-01T05:00:21;99418.91;;;9.11;92.59
21781;BME280;52576;53.614;9.894;2023-04-01T05:02:31;99416.41;;;9.10;92.59
21781;BME280;52576;53.614;9.894;2023-04-01T05:04:35;99417.25;;;9.10;92.57
21781;BME280;52576;53.614;9.894;2023-04-01T05:06:43;99429.50;;;9.10;92.58
21781;BME280;52576;53.614;9.894;2023-04-01T05:08:46;99422.88;;;9.06;92.32
21781;BME280;52576;53.614;9.894;2023-04-01T05:10:51;99430.38;;;8.99;92.31
21781;BME280;52576;53.614;9.894;2023-04-01T05:12:54;99424.81;;;8.93;92.17
21781;BME280;52576;53.614;9.894;2023-04-01T05:14:58;99428.88;;;8.85;91.93
21781;BME280;52576;53.614;9.894;2023-04-01T05:17:02;99434.63;;;8.79;91.90
21781;BME280;52576;53.614;9.894;2023-04-01T05:19:05;99438.56;;;8.74;91.75
21781;BME280;52576;53.614;9.894;2023-04-01T05:21:10;99433.09;;;8.66;91.42
21781;BME280;52576;53.614;9.894;2023-04-01T05:23:13;99451.16;;;8.58;91.17
21781;BME280;52576;53.614;9.894;2023-04-01T05:25:17;99456.19;;;8.49;90.88
21781;BME280;52576;53.614;9.894;2023-04-01T05:27:22;99455.94;;;8.41;90.64
21781;BME280;52576;53.614;9.894;2023-04-01T05:29:26;99447.28;;;8.30;90.30
21781;BME280;52576;53.614;9.894;2023-04-01T05:31:37;99461.03;;;8.21;90.21
21781;BME280;52576;53.614;9.894;2023-04-01T05:33:40;99462.56;;;8.12;90.11
21781;BME280;52576;53.614;9.894;2023-04-01T05:35:44;99470.88;;;8.06;89.96
21781;BME280;52576;53.614;9.894;2023-04-01T05:37:47;99466.84;;;8.02;90.14
21781;BME280;52576;53.614;9.894;2023-04-01T05:39:51;99469.94;;;7.96;90.08
21781;BME280;52576;53.614;9.894;2023-04-01T05:41:54;99476.31;;;7.92;90.18
21781;BME280;52576;53.614;9.894;2023-04-01T05:43:59;99471.44;;;7.87;90.05
21781;BME280;52576;53.614;9.894;2023-04-01T05:46:14;99477.97;;;7.81;90.06
21781;BME280;52576;53.614;9.894;2023-04-01T05:48:27;99475.63;;;7.78;89.90
21781;BME280;52576;53.614;9.894;2023-04-01T05:50:31;99494.09;;;7.75;89.95
21781;BME280;52576;53.614;9.894;2023-04-01T05:52:36;99497.88;;;7.71;89.88
21781;BME280;52576;53.614;9.894;2023-04-01T05:54:39;99491.22;;;7.67;90.00
21781;BME280;52576;53.614;9.894;2023-04-01T05:56:43;99496.78;;;7.63;89.94
21781;BME280;52576;53.614;9.894;2023-04-01T05:58:51;99502.34;;;7.58;89.89
21781;BME280;52576;53.614;9.894;2023-04-01T06:01:02;99504.47;;;7.53;90.02
21781;BME280;52576;53.614;9.894;2023-04-01T06:03:15;99506.59;;;7.48;89.83
21781;BME280;52576;53.614;9.894;2023-04-01T06:05:23;99506.09;;;7.43;89.68
21781;BME280;52576;53.614;9.894;2023-04-01T06:07:27;99510.91;;;7.36;89.74
21781;BME280;52576;53.614;9.894;2023-04-01T06:09:31;99515.53;;;7.33;89.81
21781;BME280;52576;53.614;9.894;2023-04-01T06:11:40;99520.00;;;7.31;89.87
21781;BME280;52576;53.614;9.894;2023-04-01T06:14:00;99523.81;;;7.27;89.95
21781;BME280;52576;53.614;9.894;2023-04-01T06:16:18;99519.66;;;7.24;90.06
21781;BME280;52576;53.614;9.894;2023-04-01T06:18:53;99524.16;;;7.22;90.01
21781;BME280;52576;53.614;9.894;2023-04-01T06:21:00;99531.13;;;7.22;90.03
21781;BME280;52576;53.614;9.894;2023-04-01T06:23:15;99527.81;;;7.20;90.03
21781;BME280;52576;53.614;9.894;2023-04-01T06:25:32;99540.94;;;7.18;90.07
21781;BME280;52576;53.614;9.894;2023-04-01T06:27:50;99540.31;;;7.14;89.75
21781;BME280;52576;53.614;9.894;2023-04-01T06:30:26;99540.53;;;7.11;89.86
21781;BME280;52576;53.614;9.894;2023-04-01T06:32:58;99553.06;;;7.06;89.91
21781;BME280;52576;53.614;9.894;2023-04-01T06:35:19;99552.34;;;7.04;89.77
21781;BME280;52576;53.614;9.894;2023-04-01T06:37:52;99549.97;;;7.01;89.83
21781;BME280;52576;53.614;9.894;2023-04-01T06:40:23;99558.13;;;6.97;89.60
21781;BME280;52576;53.614;9.894;2023-04-01T06:42:44;99562.72;;;6.93;89.51
21781;BME280;52576;53.614;9.894;2023-04-01T06:45:20;99565.53;;;6.90;89.51
21781;BME280;52576;53.614;9.894;2023-04-01T06:48:05;99568.34;;;6.87;89.53
21781;BME280;52576;53.614;9.894;2023-04-01T06:50:56;99572.09;;;6.83;89.39
21781;BME280;52576;53.614;9.894;2023-04-01T06:53:23;99577.53;;;6.80;89.47
21781;BME280;52576;53.614;9.894;2023-04-01T06:55:48;99583.56;;;6.80;89.57
21781;BME280;52576;53.614;9.894;2023-04-01T06:58:34;99587.94;;;6.80;89.47
21781;BME280;52576;53.614;9.894;2023-04-01T07:00:40;99591.28;;;6.82;89.57
21781;BME280;52576;53.614;9.894;2023-04-01T07:02:49;99592.09;;;6.82;89.44
21781;BME280;52576;53.614;9.894;2023-04-01T07:04:59;99599.81;;;6.84;89.34
21781;BME280;52576;53.614;9.894;2023-04-01T07:07:09;99600.03;;;6.81;89.05
21781;BME280;52576;53.614;9.894;2023-04-01T07:09:28;99596.69;;;6.79;88.94
21781;BME280;52576;53.614;9.894;2023-04-01T07:11:53;99608.97;;;6.77;88.71
21781;BME280;52576;53.614;9.894;2023-04-01T07:14:22;99605.44;;;6.78;88.80
21781;BME280;52576;53.614;9.894;2023-04-01T07:16:30;99611.47;;;6.78;88.74
21781;BME280;52576;53.614;9.894;2023-04-01T07:18:40;99615.84;;;6.78;88.73
21781;BME280;52576;53.614;9.894;2023-04-01T07:20:46;99625.53;;;6.76;88.60
21781;BME280;52576;53.614;9.894;2023-04-01T07:22:52;99625.06;;;6.71;88.64
21781;BME280;52576;53.614;9.894;2023-04-01T07:25:11;99625.25;;;6.68;88.37
21781;BME280;52576;53.614;9.894;2023-04-01T07:27:18;99636.72;;;6.65;88.28
21781;BME280;52576;53.614;9.894;2023-04-01T07:29:23;99631.81;;;6.61;88.24
21781;BME280;52576;53.614;9.894;2023-04-01T07:31:43;99641.50;;;6.59;88.22
21781;BME280;52576;53.614;9.894;2023-04-01T07:34:00;99636.41;;;6.57;87.92
21781;BME280;52576;53.614;9.894;2023-04-01T07:36:13;99652.75;;;6.59;88.37
21781;BME280;52576;53.614;9.894;2023-04-01T07:38:28;99651.91;;;6.59;88.30
21781;BME280;52576;53.614;9.894;2023-04-01T07:40:42;99652.75;;;6.59;88.08
21781;BME280;52576;53.614;9.894;2023-04-01T07:43:01;99653.59;;;6.60;88.15
21781;BME280;52576;53.614;9.894;2023-04-01T07:45:17;99660.56;;;6.59;88.02
21781;BME280;52576;53.614;9.894;2023-04-01T07:47:40;99671.06;;;6.58;88.00
21781;BME280;52576;53.614;9.894;2023-04-01T07:49:55;99660.66;;;6.58;87.95
21781;BME280;52576;53.614;9.894;2023-04-01T07:52:08;99665.03;;;6.57;87.90
21781;BME280;52576;53.614;9.894;2023-04-01T07:54:22;99673.69;;;6.58;87.90
21781;BME280;52576;53.614;9.894;2023-04-01T07:56:31;99684.81;;;6.60;87.84
21781;BME280;52576;53.614;9.894;2023-04-01T07:58:48;99672.75;;;6.59;87.70
21781;BME280;52576;53.614;9.894;2023-04-01T08:01:32;99689.50;;;6.55;87.30
21781;BME280;52576;53.614;9.894;2023-04-01T08:03:58;99689.00;;;6.50;87.03
21781;BME280;52576;53.614;9.894;2023-04-01T08:06:10;99690.88;;;6.47;86.92
21781;BME280;52576;53.614;9.894;2023-04-01T08:08:25;99702.97;;;6.49;86.98
21781;BME280;52576;53.614;9.894;2023-04-01T08:11:10;99694.41;;;6.46;86.81
21781;BME280;52576;53.614;9.894;2023-04-01T08:13:40;99704.81;;;6.46;86.99
21781;BME280;52576;53.614;9.894;2023-04-01T08:16:18;99710.03;;;6.46;86.91
21781;BME280;52576;53.614;9.894;2023-04-01T08:18:35;99712.63;;;6.46;86.96
21781;BME280;52576;53.614;9.894;2023-04-01T08:20:47;99712.44;;;6.50;86.89
21781;BME280;52576;53.614;9.894;2023-04-01T08:22:56;99721.69;;;6.54;87.02
21781;BME280;52576;53.614;9.894;2023-04-01T08:25:15;99740.63;;;6.56;86.80
21781;BME280;52576;53.614;9.894;2023-04-01T08:27:23;99724.28;;;6.54;86.48
21781;BME280;52576;53.614;9.894;2023-04-01T08:29:35;99727.09;;;6.51;86.27
21781;BME280;52576;53.614;9.894;2023-04-01T08:31:43;99736.06;;;6.46;86.00
21781;BME280;52576;53.614;9.894;2023-04-01T08:33:49;99742.19;;;6.45;85.98
21781;BME280;52576;53.614;9.894;2023-04-01T08:35:59;99740.44;;;6.46;86.07
21781;BME280;52576;53.614;9.894;2023-04-01T08:38:11;99749.06;;;6.46;86.21
21781;BME280;52576;53.614;9.894;2023-04-01T08:40:33;99749.56;;;6.52;86.33
21781;BME280;52576;53.614;9.894;2023-04-01T08:42:50;99754.59;;;6.55;86.29
21781;BME280;52576;53.614;9.894;2023-04-01T08:47:54;99767.09;;;6.62;86.25
21781;BME280;52576;53.614;9.894;2023-04-01T08:50:46;99769.59;;;6.64;86.00
21781;BME280;52576;53.614;9.894;2023-04-01T08:53:05;99773.78;;;6.66;85.94
21781;BME280;52576;53.614;9.894;2023-04-01T08:58:00;99772.00;;;6.67;85.82
21781;BME280;52576;53.614;9.894;2023-04-01T09:00:27;99781.50;;;6.68;85.78
21781;BME280;52576;53.614;9.894;2023-04-01T09:05:47;99783.91;;;6.71;85.51
21781;BME280;52576;53.614;9.894;2023-04-01T09:08:11;99791.50;;;6.74;85.39
21781;BME280;52576;53.614;9.894;2023-04-01T09:10:40;99794.13;;;6.74;85.11
21781;BME280;52576;53.614;9.894;2023-04-01T09:13:35;99798.59;;;6.72;84.95
21781;BME280;52576;53.614;9.894;2023-04-01T09:16:07;99796.72;;;6.74;85.17
21781;BME280;52576;53.614;9.894;2023-04-01T09:18:40;99792.94;;;6.78;85.19
21781;BME280;52576;53.614;9.894;2023-04-01T09:21:03;99801.28;;;6.83;85.30
21781;BME280;52576;53.614;9.894;2023-04-01T09:23:21;99809.63;;;6.88;85.05
21781;BME280;52576;53.614;9.894;2023-04-01T09:25:46;99819.88;;;6.91;84.90
21781;BME280;52576;53.614;9.894;2023-04-01T09:27:57;99812.16;;;6.90;84.47
21781;BME280;52576;53.614;9.894;2023-04-01T09:30:20;99819.31;;;6.86;84.17
21781;BME280;52576;53.614;9.894;2023-04-01T09:35:21;99831.81;;;6.81;84.03
21781;BME280;52576;53.614;9.894;2023-04-01T09:37:46;99835.34;;;6.80;84.21
21781;BME280;52576;53.614;9.894;2023-04-01T09:40:18;99838.59;;;6.84;84.38
21781;BME280;52576;53.614;9.894;2023-04-01T09:42:38;99843.50;;;6.88;84.38
21781;BME280;52576;53.614;9.894;2023-04-01T09:44:53;99842.56;;;6.89;84.09
21781;BME280;52576;53.614;9.894;2023-04-01T09:47:16;99849.25;;;6.93;84.02
21781;BME280;52576;53.614;9.894;2023-04-01T09:49:44;99847.28;;;6.97;84.01
21781;BME280;52576;53.614;9.894;2023-04-01T09:52:07;99853.22;;;6.99;84.18
21781;BME280;52576;53.614;9.894;2023-04-01T09:54:24;99847.19;;;6.98;83.84
21781;BME280;52576;53.614;9.894;2023-04-01T09:57:09;99861.13;;;6.97;83.40
21781;BME280;52576;53.614;9.894;2023-04-01T10:05:27;99870.81;;;6.95;83.14
21781;BME280;52576;53.614;9.894;2023-04-01T10:10:38;99873.03;;;7.01;83.12
21781;BME280;52576;53.614;9.894;2023-04-01T10:13:08;99878.09;;;7.03;82.90
21781;BME280;52576;53.614;9.894;2023-04-01T10:15:33;99884.16;;;7.03;82.72
21781;BME280;52576;53.614;9.894;2023-04-01T10:17:58;99877.50;;;6.99;82.65
21781;BME280;52576;53.614;9.894;2023-04-01T10:20:41;99886.16;;;7.00;82.68
21781;BME280;52576;53.614;9.894;2023-04-01T10:23:18;99885.31;;;6.99;82.51
21781;BME280;52576;53.614;9.894;2023-04-01T10:28:23;99895.31;;;7.05;82.81
21781;BME280;52576;53.614;9.894;2023-04-01T10:31:20;99899.19;;;7.12;82.80
21781;BME280;52576;53.614;9.894;2023-04-01T10:33:42;99907.75;;;7.14;82.19
21781;BME280;52576;53.614;9.894;2023-04-01T10:36:33;99906.81;;;7.15;82.15
21781;BME280;52576;53.614;9.894;2023-04-01T10:39:00;99903.38;;;7.15;81.91
21781;BME280;52576;53.614;9.894;2023-04-01T10:44:17;99911.41;;;7.25;82.12
21781;BME280;52576;53.614;9.894;2023-04-01T10:49:46;99923.13;;;7.44;82.22
21781;BME280;52576;53.614;9.894;2023-04-01T10:54:49;99922.28;;;7.69;81.71
21781;BME280;52576;53.614;9.894;2023-04-01T10:57:38;99917.69;;;7.73;80.92
21781;BME280;52576;53.614;9.894;2023-04-01T11:00:21;99925.63;;;7.71;80.65
21781;BME280;52576;53.614;9.894;2023-04-01T11:03:33;99936.25;;;7.68;80.54
21781;BME280;52576;53.614;9.894;2023-04-01T11:06:39;99939.81;;;7.67;80.32
21781;BME280;52576;53.614;9.894;2023-04-01T11:12:10;99945.84;;;7.55;80.04
21781;BME280;52576;53.614;9.894;2023-04-01T11:20:08;99961.69;;;7.39;80.35
21781;BME280;52576;53.614;9.894;2023-04-01T11:22:55;99958.75;;;7.31;80.07
21781;BME280;52576;53.614;9.894;2023-04-01T11:25:24;99961.13;;;7.22;79.93
21781;BME280;52576;53.614;9.894;2023-04-01T11:28:09;99967.69;;;7.14;80.04
21781;BME280;52576;53.614;9.894;2023-04-01T11:30:25;99978.31;;;7.11;80.42
21781;BME280;52576;53.614;9.894;2023-04-01T11:32:42;99984.34;;;7.12;80.51
21781;BME280;52576;53.614;9.894;2023-04-01T11:34:56;99977.47;;;7.11;80.51
21781;BME280;52576;53.614;9.894;2023-04-01T11:37:21;99987.88;;;7.11;80.68
21781;BME280;52576;53.614;9.894;2023-04-01T11:39:59;99984.44;;;7.10;80.71
21781;BME280;52576;53.614;9.894;2023-04-01T11:42:40;99983.72;;;7.08;80.53
21781;BME280;52576;53.614;9.894;2023-04-01T11:45:19;99990.78;;;7.06;80.65
21781;BME280;52576;53.614;9.894;2023-04-01T11:47:45;100008.09;;;7.07;81.05
21781;BME280;52576;53.614;9.894;2023-04-01T11:52:44;100017.03;;;7.03;80.74
21781;BME280;52576;53.614;9.894;2023-04-01T11:55:05;100011.00;;;7.03;80.68
21781;BME280;52576;53.614;9.894;2023-04-01T11:57:27;100017.25;;;7.00;80.73
21781;BME280;52576;53.614;9.894;2023-04-01T11:59:50;100025.28;;;6.97;80.79
21781;BME280;52576;53.614;9.894;2023-04-01T12:01:59;100028.91;;;6.95;80.52
21781;BME280;52576;53.614;9.894;2023-04-01T12:04:37;100030.50;;;6.83;80.63
21781;BME280;52576;53.614;9.894;2023-04-01T12:06:51;100037.56;;;6.81;80.92
21781;BME280;52576;53.614;9.894;2023-04-01T12:09:02;100048.19;;;6.78;80.98
21781;BME280;52576;53.614;9.894;2023-04-01T12:11:14;100044.84;;;6.76;81.08
21781;BME280;52576;53.614;9.894;2023-04-01T12:13:29;100048.41;;;6.75;80.86
21781;BME280;52576;53.614;9.894;2023-04-01T12:15:48;100046.91;;;6.71;80.07
21781;BME280;52576;53.614;9.894;2023-04-01T12:18:06;100048.97;;;6.66;80.25
21781;BME280;52576;53.614;9.894;2023-04-01T12:20:36;100063.75;;;6.65;80.06
21781;BME280;52576;53.614;9.894;2023-04-01T12:22:49;100061.06;;;6.67;80.40
21781;BME280;52576;53.614;9.894;2023-04-01T12:25:07;100059.38;;;6.66;80.13
21781;BME280;52576;53.614;9.894;2023-04-01T12:27:31;100066.44;;;6.64;80.33
21781;BME280;52576;53.614;9.894;2023-04-01T12:29:50;100070.91;;;6.62;80.45
21781;BME280;52576;53.614;9.894;2023-04-01T12:32:00;100073.69;;;6.59;80.37
21781;BME280;52576;53.614;9.894;2023-04-01T12:34:33;100075.91;;;6.51;80.14
21781;BME280;52576;53.614;9.894;2023-04-01T12:36:50;100081.72;;;6.41;80.33
21781;BME280;52576;53.614;9.894;2023-04-01T12:39:15;100087.94;;;6.39;80.43
21781;BME280;52576;53.614;9.894;2023-04-01T12:41:31;100092.31;;;6.38;80.45
21781;BME280;52576;53.614;9.894;2023-04-01T12:46:05;100092.84;;;6.29;80.37